createdAt,value
2018-12-26T00:00:23.168Z,101761.28
2018-12-26T00:02:56.515Z,101756.41
2018-12-26T00:05:28.171Z,101750.66
2018-12-26T00:07:59.944Z,101755.80
2018-12-26T00:10:37.086Z,101765.37
2018-12-26T00:13:25.652Z,101761.47
2018-12-26T00:16:01.900Z,101765.77
2018-12-26T00:18:34.347Z,101758.66
2018-12-26T00:21:06.013Z,101751.57
2018-12-26T00:23:37.744Z,101754.68
2018-12-26T00:26:09.335Z,101755.66
2018-12-26T00:28:40.892Z,101753.48
2018-12-26T00:31:12.484Z,101752.50
2018-12-26T00:33:45.250Z,101747.30
2018-12-26T00:36:16.918Z,101745.25
2018-12-26T00:38:48.492Z,101741.56
2018-12-26T00:41:20.078Z,101743.91
2018-12-26T00:43:51.651Z,101733.75
2018-12-26T00:46:23.322Z,101732.89
2018-12-26T00:48:54.928Z,101726.53
2018-12-26T00:51:26.637Z,101729.53
2018-12-26T00:53:58.284Z,101733.73
2018-12-26T00:56:29.894Z,101730.30
2018-12-26T00:59:01.520Z,101735.55
2018-12-26T01:01:33.202Z,101724.84
2018-12-26T01:04:05.876Z,101721.13
2018-12-26T01:06:37.484Z,101718.99
2018-12-26T01:09:09.964Z,101729.58
2018-12-26T01:11:41.566Z,101733.34
2018-12-26T01:14:13.153Z,101734.57
2018-12-26T01:16:44.825Z,101744.33
2018-12-26T01:19:16.413Z,101738.59
2018-12-26T01:21:48.000Z,101745.63
2018-12-26T01:24:19.612Z,101749.22
2018-12-26T01:26:51.198Z,101754.92
2018-12-26T01:29:22.802Z,101752.50
2018-12-26T01:31:54.429Z,101752.58
2018-12-26T01:34:26.098Z,101748.23
2018-12-26T01:36:57.708Z,101754.38
2018-12-26T01:39:29.282Z,101746.82
2018-12-26T01:42:00.939Z,101759.69
2018-12-26T01:44:32.594Z,101754.91
2018-12-26T01:47:04.218Z,101762.27
2018-12-26T01:49:35.960Z,101765.63
2018-12-26T01:52:07.692Z,101757.66
2018-12-26T01:54:39.415Z,101765.33
2018-12-26T01:57:11.107Z,101773.80
2018-12-26T01:59:42.802Z,101768.23
2018-12-26T02:02:14.499Z,101752.71
2018-12-26T02:04:46.080Z,101752.38
2018-12-26T02:07:17.898Z,101748.08
2018-12-26T02:09:49.503Z,101747.90
2018-12-26T02:12:21.111Z,101752.61
2018-12-26T02:14:52.803Z,101746.63
2018-12-26T02:17:24.384Z,101746.95
2018-12-26T02:19:56.089Z,101751.03
2018-12-26T02:22:27.797Z,101748.33
2018-12-26T02:24:59.395Z,101740.86
2018-12-26T02:27:30.931Z,101733.62
2018-12-26T02:30:02.560Z,101715.53
2018-12-26T02:32:34.171Z,101715.44
2018-12-26T02:35:05.959Z,101715.14
2018-12-26T02:37:37.570Z,101704.56
2018-12-26T02:40:09.300Z,101709.20
2018-12-26T02:42:40.926Z,101709.43
2018-12-26T02:45:12.523Z,101718.32
2018-12-26T02:47:44.085Z,101729.20
2018-12-26T02:50:15.651Z,101729.42
2018-12-26T02:52:47.615Z,101731.80
2018-12-26T02:55:19.167Z,101717.64
2018-12-26T02:57:50.863Z,101720.88
2018-12-26T03:00:22.460Z,101713.34
2018-12-26T03:02:54.052Z,101703.65
2018-12-26T03:05:25.614Z,101700.88
2018-12-26T03:07:57.200Z,101702.02
2018-12-26T03:10:28.826Z,101687.92
2018-12-26T03:13:00.455Z,101690.86
2018-12-26T03:15:32.054Z,101685.77
2018-12-26T03:18:03.655Z,101675.08
2018-12-26T03:20:35.284Z,101676.03
2018-12-26T03:23:07.025Z,101669.62
2018-12-26T03:25:38.594Z,101667.81
2018-12-26T03:28:10.262Z,101663.44
2018-12-26T03:30:41.908Z,101665.55
2018-12-26T03:33:13.698Z,101661.98
2018-12-26T03:35:45.318Z,101677.04
2018-12-26T03:38:17.114Z,101667.19
2018-12-26T03:40:48.653Z,101652.28
2018-12-26T03:43:20.216Z,101654.95
2018-12-26T03:45:52.200Z,101664.58
2018-12-26T03:48:23.937Z,101669.28
2018-12-26T03:50:55.545Z,101676.59
2018-12-26T03:53:27.169Z,101668.65
2018-12-26T03:55:58.917Z,101660.50
2018-12-26T03:58:30.528Z,101650.81
2018-12-26T04:01:02.147Z,101646.17
2018-12-26T04:03:33.759Z,101638.98
2018-12-26T04:06:05.369Z,101634.61
2018-12-26T04:08:37.050Z,101655.29
2018-12-26T04:11:09.388Z,101646.97
2018-12-26T04:13:41.064Z,101643.90
2018-12-26T04:16:12.782Z,101651.28
2018-12-26T04:18:44.379Z,101659.03
2018-12-26T04:21:16.045Z,101654.16
2018-12-26T04:23:47.700Z,101646.51
2018-12-26T04:26:19.288Z,101656.92
2018-12-26T04:28:51.064Z,101650.08
2018-12-26T04:31:22.855Z,101661.64
2018-12-26T04:33:54.448Z,101657.56
2018-12-26T04:36:26.025Z,101660.66
2018-12-26T04:38:57.628Z,101657.89
2018-12-26T04:41:30.941Z,101659.20
2018-12-26T04:44:02.568Z,101653.02
2018-12-26T04:46:34.175Z,101667.98
2018-12-26T04:49:05.996Z,101662.27
2018-12-26T04:51:37.558Z,101655.69
2018-12-26T04:54:09.243Z,101658.30
2018-12-26T04:56:40.839Z,101654.63
2018-12-26T04:59:12.441Z,101648.11
2018-12-26T05:01:44.045Z,101658.53
2018-12-26T05:04:15.659Z,101654.49
2018-12-26T05:06:48.436Z,101660.51
2018-12-26T05:09:20.092Z,101650.08
2018-12-26T05:11:51.816Z,101653.02
2018-12-26T05:14:23.440Z,101653.25
2018-12-26T05:16:55.245Z,101653.99
2018-12-26T05:19:26.829Z,101650.58
2018-12-26T05:21:58.437Z,101656.94
2018-12-26T05:24:30.032Z,101661.30
2018-12-26T05:27:01.768Z,101674.84
2018-12-26T05:29:34.191Z,101664.92
2018-12-26T05:32:06.005Z,101666.63
2018-12-26T05:34:37.554Z,101661.31
2018-12-26T05:37:09.238Z,101668.99
2018-12-26T05:39:40.971Z,101654.22
2018-12-26T05:42:12.580Z,101652.19
2018-12-26T05:44:44.140Z,101653.19
2018-12-26T05:47:15.818Z,101661.81
2018-12-26T05:49:47.486Z,101664.08
2018-12-26T05:52:19.165Z,101673.55
2018-12-26T05:54:51.553Z,101660.00
2018-12-26T05:57:23.314Z,101661.98
2018-12-26T05:59:56.460Z,101663.78
2018-12-26T06:02:28.871Z,101667.19
2018-12-26T06:05:00.580Z,101669.56
2018-12-26T06:07:32.321Z,101672.40
2018-12-26T06:10:03.924Z,101678.25
2018-12-26T06:12:35.591Z,101688.84
2018-12-26T06:15:07.218Z,101684.77
2018-12-26T06:17:38.880Z,101689.68
2018-12-26T06:20:10.586Z,101684.70
2018-12-26T06:22:42.282Z,101676.95
2018-12-26T06:25:15.302Z,101670.53
2018-12-26T06:27:51.450Z,101674.67
2018-12-26T06:30:20.180Z,101676.38
2018-12-26T06:32:51.855Z,101687.87
2018-12-26T06:35:23.478Z,101686.01
2018-12-26T06:37:56.263Z,101700.28
2018-12-26T06:40:27.930Z,101696.03
2018-12-26T06:42:59.522Z,101690.31
2018-12-26T06:45:31.261Z,101693.59
2018-12-26T06:48:03.111Z,101701.41
2018-12-26T06:50:34.854Z,101698.47
2018-12-26T06:53:06.508Z,101706.70
2018-12-26T06:55:38.310Z,101705.32
2018-12-26T06:58:10.152Z,101708.90
2018-12-26T07:00:41.990Z,101712.01
2018-12-26T07:03:13.759Z,101712.18
2018-12-26T07:05:45.484Z,101712.48
2018-12-26T07:08:19.180Z,101700.58
2018-12-26T07:10:50.793Z,101694.78
2018-12-26T07:13:22.413Z,101701.15
2018-12-26T07:15:54.043Z,101699.73
2018-12-26T07:18:31.958Z,101699.09
2018-12-26T07:21:13.241Z,101700.70
2018-12-26T07:23:44.957Z,101710.17
2018-12-26T07:26:24.669Z,101714.09
2018-12-26T07:29:00.999Z,101719.72
2018-12-26T07:31:32.842Z,101723.41
2018-12-26T07:34:04.607Z,101721.59
2018-12-26T07:36:36.289Z,101721.47
2018-12-26T07:39:09.244Z,101724.71
2018-12-26T07:41:40.839Z,101723.97
2018-12-26T07:44:12.431Z,101730.73
2018-12-26T07:46:44.086Z,101732.37
2018-12-26T07:49:15.690Z,101732.03
2018-12-26T07:51:47.262Z,101734.64
2018-12-26T07:54:20.708Z,101736.38
2018-12-26T07:56:52.581Z,101734.80
2018-12-26T07:59:24.300Z,101734.51
2018-12-26T08:01:55.971Z,101738.98
2018-12-26T08:04:27.726Z,101726.16
2018-12-26T08:06:59.369Z,101727.08
2018-12-26T08:09:31.093Z,101734.50
2018-12-26T08:12:02.796Z,101733.77
2018-12-26T08:14:34.413Z,101737.58
2018-12-26T08:17:06.118Z,101732.70
2018-12-26T08:19:37.690Z,101734.64
2018-12-26T08:22:09.391Z,101733.60
2018-12-26T08:24:41.060Z,101741.32
2018-12-26T08:27:12.697Z,101738.25
2018-12-26T08:29:44.323Z,101741.83
2018-12-26T08:32:15.893Z,101745.50
2018-12-26T08:34:47.526Z,101745.17
2018-12-26T08:37:19.234Z,101753.23
2018-12-26T08:39:50.931Z,101748.85
2018-12-26T08:42:22.599Z,101752.83
2018-12-26T08:44:55.177Z,101756.97
2018-12-26T08:47:26.741Z,101758.78
2018-12-26T08:49:58.404Z,101759.58
2018-12-26T08:52:31.460Z,101756.27
2018-12-26T08:55:03.581Z,101760.82
2018-12-26T08:57:35.697Z,101758.28
2018-12-26T09:00:08.410Z,101750.16
2018-12-26T09:02:40.131Z,101761.95
2018-12-26T09:05:12.063Z,101752.36
2018-12-26T09:07:43.669Z,101746.70
2018-12-26T09:10:15.293Z,101747.38
2018-12-26T09:12:48.072Z,101752.59
2018-12-26T09:15:19.814Z,101747.05
2018-12-26T09:17:51.415Z,101743.70
2018-12-26T09:20:23.017Z,101745.58
2018-12-26T09:22:54.634Z,101747.77
2018-12-26T09:25:26.871Z,101749.02
2018-12-26T09:28:01.656Z,101744.94
2018-12-26T09:30:34.450Z,101744.43
2018-12-26T09:33:06.495Z,101757.80
2018-12-26T09:35:39.421Z,101756.56
2018-12-26T09:38:11.083Z,101757.80
2018-12-26T09:40:43.033Z,101762.52
2018-12-26T09:43:14.660Z,101766.25
2018-12-26T09:45:46.255Z,101751.66
2018-12-26T09:48:17.830Z,101751.91
2018-12-26T09:50:49.456Z,101756.09
2018-12-26T09:53:21.066Z,101759.91
2018-12-26T09:55:52.689Z,101757.97
2018-12-26T09:58:24.292Z,101752.41
2018-12-26T10:00:55.961Z,101754.22
2018-12-26T10:03:27.521Z,101749.64
2018-12-26T10:05:59.126Z,101753.05
2018-12-26T10:08:30.765Z,101751.28
2018-12-26T10:11:02.404Z,101758.14
2018-12-26T10:13:33.975Z,101747.36
2018-12-26T10:16:05.659Z,101739.83
2018-12-26T10:18:37.328Z,101748.72
2018-12-26T10:21:08.904Z,101749.64
2018-12-26T10:23:40.628Z,101744.20
2018-12-26T10:26:12.220Z,101747.04
2018-12-26T10:28:43.872Z,101736.94
2018-12-26T10:31:16.718Z,101730.98
2018-12-26T10:33:48.332Z,101730.09
2018-12-26T10:36:19.955Z,101728.05
2018-12-26T10:38:51.569Z,101730.16
2018-12-26T10:41:23.200Z,101722.43
2018-12-26T10:43:55.012Z,101725.44
2018-12-26T10:46:26.579Z,101718.36
2018-12-26T10:48:58.315Z,101724.47
2018-12-26T10:51:30.006Z,101720.56
2018-12-26T10:54:01.583Z,101719.16
2018-12-26T10:56:33.213Z,101714.77
2018-12-26T10:59:10.113Z,101721.92
2018-12-26T11:01:38.440Z,101721.12
2018-12-26T11:04:10.119Z,101715.17
2018-12-26T11:06:43.526Z,101709.39
2018-12-26T11:09:15.114Z,101709.05
2018-12-26T11:11:46.927Z,101712.97
2018-12-26T11:14:18.661Z,101708.64
2018-12-26T11:16:51.832Z,101707.11
2018-12-26T11:19:23.696Z,101710.67
2018-12-26T11:21:55.629Z,101709.86
2018-12-26T11:24:27.332Z,101703.58
2018-12-26T11:26:58.923Z,101714.42
2018-12-26T11:29:30.545Z,101718.00
2018-12-26T11:32:02.101Z,101721.50
2018-12-26T11:34:33.902Z,101719.89
2018-12-26T11:37:05.418Z,101722.17
2018-12-26T11:39:37.167Z,101713.02
2018-12-26T11:42:08.798Z,101712.78
2018-12-26T11:44:40.570Z,101709.84
2018-12-26T11:47:12.210Z,101711.87
2018-12-26T11:49:43.810Z,101715.53
2018-12-26T11:52:15.540Z,101717.09
2018-12-26T11:54:47.171Z,101708.10
2018-12-26T11:57:18.943Z,101710.53
2018-12-26T11:59:50.533Z,101709.71
2018-12-26T12:02:22.119Z,101712.60
2018-12-26T12:04:53.782Z,101713.92
2018-12-26T12:07:25.453Z,101721.89
2018-12-26T12:10:00.192Z,101723.46
2018-12-26T12:12:31.751Z,101726.55
2018-12-26T12:15:04.501Z,101723.00
2018-12-26T12:17:36.617Z,101726.18
2018-12-26T12:20:10.701Z,101722.67
2018-12-26T12:22:47.781Z,101731.16
2018-12-26T12:25:22.667Z,101734.80
2018-12-26T12:28:17.091Z,101736.45
2018-12-26T12:31:41.600Z,101742.73
2018-12-26T12:34:13.464Z,101734.17
2018-12-26T12:36:45.185Z,101735.94
2018-12-26T12:39:16.783Z,101731.73
2018-12-26T12:41:48.386Z,101724.08
2018-12-26T12:44:21.579Z,101730.89
2018-12-26T12:46:53.338Z,101727.88
2018-12-26T12:49:25.083Z,101736.11
2018-12-26T12:51:56.767Z,101738.25
2018-12-26T12:54:28.378Z,101735.80
2018-12-26T12:57:00.105Z,101737.34
2018-12-26T12:59:31.860Z,101746.31
2018-12-26T13:02:04.567Z,101749.98
2018-12-26T13:04:36.309Z,101745.91
2018-12-26T13:07:07.991Z,101735.97
2018-12-26T13:09:39.711Z,101745.41
2018-12-26T13:12:11.284Z,101746.88
2018-12-26T13:14:42.987Z,101743.46
2018-12-26T13:17:14.930Z,101747.84
2018-12-26T13:19:46.688Z,101736.61
2018-12-26T13:22:18.254Z,101743.30
2018-12-26T13:24:50.019Z,101749.65
2018-12-26T13:27:21.906Z,101744.76
2018-12-26T13:29:54.709Z,101754.69
2018-12-26T13:32:29.662Z,101748.50
2018-12-26T13:35:01.373Z,101750.78
2018-12-26T13:37:41.864Z,101749.58
2018-12-26T13:40:13.518Z,101748.68
2018-12-26T13:42:45.177Z,101753.55
2018-12-26T13:45:16.839Z,101757.80
2018-12-26T13:47:49.487Z,101756.50
2018-12-26T13:50:21.198Z,101767.33
2018-12-26T13:52:52.822Z,101768.64
2018-12-26T13:55:24.417Z,101768.14
2018-12-26T13:57:56.955Z,101770.02
2018-12-26T14:00:37.175Z,101774.83
2018-12-26T14:03:08.971Z,101770.28
2018-12-26T14:05:42.323Z,101767.51
2018-12-26T14:08:14.133Z,101771.82
2018-12-26T14:10:45.959Z,101763.93
2018-12-26T14:13:17.602Z,101771.66
2018-12-26T14:15:49.366Z,101758.71
2018-12-26T14:18:21.134Z,101768.41
2018-12-26T14:20:52.820Z,101769.05
2018-12-26T14:23:24.522Z,101779.58
2018-12-26T14:25:56.214Z,101780.61
2018-12-26T14:28:28.026Z,101775.91
2018-12-26T14:30:59.680Z,101764.63
2018-12-26T14:33:31.483Z,101776.53
2018-12-26T14:36:03.473Z,101773.63
2018-12-26T14:38:35.395Z,101770.52
2018-12-26T14:41:07.035Z,101777.02
2018-12-26T14:43:38.605Z,101774.88
2018-12-26T14:46:10.187Z,101771.63
2018-12-26T14:48:41.749Z,101771.28
2018-12-26T14:51:13.312Z,101768.85
2018-12-26T14:53:44.921Z,101765.88
2018-12-26T14:56:16.544Z,101769.41
2018-12-26T14:58:48.132Z,101762.95
2018-12-26T15:01:19.760Z,101774.05
2018-12-26T15:03:51.398Z,101779.09
2018-12-26T15:06:23.022Z,101767.86
2018-12-26T15:08:54.721Z,101767.69
2018-12-26T15:11:26.656Z,101779.09
2018-12-26T15:13:58.333Z,101777.21
2018-12-26T15:16:30.038Z,101771.77
2018-12-26T15:19:18.835Z,101776.67
2018-12-26T15:21:50.474Z,101776.23
2018-12-26T15:24:22.071Z,101781.69
2018-12-26T15:26:53.631Z,101788.58
2018-12-26T15:29:25.240Z,101783.95
2018-12-26T15:31:56.882Z,101775.79
2018-12-26T15:34:28.561Z,101779.65
2018-12-26T15:37:00.227Z,101773.92
2018-12-26T15:39:31.830Z,101769.37
2018-12-26T15:42:03.455Z,101772.95
2018-12-26T15:44:35.095Z,101782.48
2018-12-26T15:47:06.745Z,101777.84
2018-12-26T15:49:38.400Z,101779.64
2018-12-26T15:52:10.163Z,101782.13
2018-12-26T15:54:43.051Z,101786.48
2018-12-26T15:57:14.796Z,101788.98
2018-12-26T15:59:46.366Z,101793.23
2018-12-26T16:02:18.071Z,101787.22
2018-12-26T16:04:49.641Z,101791.52
2018-12-26T16:07:21.234Z,101790.77
2018-12-26T16:09:52.831Z,101795.66
2018-12-26T16:12:24.472Z,101799.17
2018-12-26T16:14:56.029Z,101798.34
2018-12-26T16:17:27.601Z,101797.76
2018-12-26T16:19:59.295Z,101794.60
2018-12-26T16:22:31.018Z,101800.47
2018-12-26T16:25:02.668Z,101811.72
2018-12-26T16:27:34.264Z,101804.80
2018-12-26T16:30:06.592Z,101809.02
2018-12-26T16:32:38.275Z,101806.61
2018-12-26T16:35:10.757Z,101816.15
2018-12-26T16:37:42.434Z,101824.62
2018-12-26T16:40:14.102Z,101818.75
2018-12-26T16:42:45.722Z,101820.98
2018-12-26T16:45:17.362Z,101823.20
2018-12-26T16:47:48.971Z,101821.84
2018-12-26T16:50:27.027Z,101819.13
2018-12-26T16:52:54.057Z,101821.56
2018-12-26T16:55:25.712Z,101824.70
2018-12-26T16:57:57.338Z,101832.37
2018-12-26T17:00:29.076Z,101829.29
2018-12-26T17:03:00.837Z,101837.13
2018-12-26T17:05:32.668Z,101840.20
2018-12-26T17:08:04.631Z,101843.37
2018-12-26T17:10:36.535Z,101845.28
2018-12-26T17:13:08.274Z,101844.26
2018-12-26T17:15:40.049Z,101842.92
2018-12-26T17:18:11.735Z,101851.49
2018-12-26T17:20:43.453Z,101848.88
2018-12-26T17:23:15.176Z,101848.41
2018-12-26T17:25:46.907Z,101850.50
2018-12-26T17:28:18.683Z,101849.08
2018-12-26T17:30:50.356Z,101841.13
2018-12-26T17:33:22.122Z,101854.56
2018-12-26T17:35:53.821Z,101850.50
2018-12-26T17:38:25.511Z,101843.53
2018-12-26T17:40:57.438Z,101858.03
2018-12-26T17:43:29.788Z,101857.58
2018-12-26T17:46:04.965Z,101852.91
2018-12-26T17:48:37.859Z,101861.98
2018-12-26T17:51:15.848Z,101864.42
2018-12-26T17:54:43.233Z,101870.94
2018-12-26T17:57:30.215Z,101867.58
2018-12-26T18:00:49.237Z,101871.27
2018-12-26T18:03:21.349Z,101870.52
2018-12-26T18:05:54.639Z,101873.30
2018-12-26T18:08:26.285Z,101879.41
2018-12-26T18:10:58.056Z,101878.11
2018-12-26T18:13:29.816Z,101875.50
2018-12-26T18:16:02.643Z,101873.41
2018-12-26T18:18:34.375Z,101867.17
2018-12-26T18:21:07.494Z,101870.66
2018-12-26T18:23:39.607Z,101865.17
2018-12-26T18:26:11.394Z,101861.81
2018-12-26T18:28:43.086Z,101861.66
2018-12-26T18:31:22.020Z,101862.02
2018-12-26T18:33:49.661Z,101870.91
2018-12-26T18:39:35.080Z,101876.50
2018-12-26T18:42:06.850Z,101873.46
2018-12-26T18:44:41.263Z,101877.80
2018-12-26T18:47:13.423Z,101874.91
2018-12-26T18:49:49.422Z,101874.91
2018-12-26T18:52:21.016Z,101875.45
2018-12-26T18:54:52.820Z,101878.27
2018-12-26T18:57:24.541Z,101881.89
2018-12-26T18:59:56.191Z,101877.05
2018-12-26T19:02:27.882Z,101874.22
2018-12-26T19:04:59.543Z,101875.38
2018-12-26T19:07:31.338Z,101878.48
2018-12-26T19:10:03.275Z,101882.06
2018-12-26T19:12:35.161Z,101881.12
2018-12-26T19:15:07.832Z,101889.09
2018-12-26T19:17:39.641Z,101887.53
2018-12-26T19:20:17.013Z,101886.98
2018-12-26T19:22:48.979Z,101884.75
2018-12-26T19:25:40.447Z,101886.30
2018-12-26T19:28:12.225Z,101888.11
2018-12-26T19:30:43.932Z,101892.74
2018-12-26T19:33:15.621Z,101876.14
2018-12-26T19:35:47.255Z,101883.63
2018-12-26T19:38:20.928Z,101880.16
2018-12-26T19:40:52.741Z,101881.79
2018-12-26T19:43:24.597Z,101880.27
2018-12-26T19:45:56.310Z,101890.22
2018-12-26T19:48:28.178Z,101885.77
2018-12-26T19:51:00.102Z,101882.44
2018-12-26T19:53:32.377Z,101881.64
2018-12-26T19:56:04.058Z,101883.41
2018-12-26T19:58:36.006Z,101887.72
2018-12-26T20:01:07.676Z,101886.02
2018-12-26T20:03:39.517Z,101886.06
2018-12-26T20:06:11.221Z,101886.86
2018-12-26T20:08:42.927Z,101892.03
2018-12-26T20:11:14.479Z,101890.11
2018-12-26T20:13:46.077Z,101889.85
2018-12-26T20:16:17.977Z,101888.05
2018-12-26T20:18:49.952Z,101884.53
2018-12-26T20:21:21.909Z,101883.74
2018-12-26T20:23:53.866Z,101883.95
2018-12-26T20:26:25.742Z,101880.52
2018-12-26T20:28:57.337Z,101870.75
2018-12-26T20:31:28.968Z,101873.86
2018-12-26T20:34:00.626Z,101870.06
2018-12-26T20:36:32.240Z,101871.52
2018-12-26T20:39:04.386Z,101871.88
2018-12-26T20:41:36.148Z,101871.19
2018-12-26T20:44:07.920Z,101871.37
2018-12-26T20:46:39.898Z,101870.39
2018-12-26T20:49:33.988Z,101865.98
2018-12-26T20:52:10.383Z,101864.05
2018-12-26T20:54:41.945Z,101860.30
2018-12-26T20:57:13.880Z,101859.17
2018-12-26T20:59:45.594Z,101862.28
2018-12-26T21:02:17.309Z,101863.19
2018-12-26T21:04:49.087Z,101865.22
2018-12-26T21:07:20.780Z,101859.46
2018-12-26T21:09:52.485Z,101862.67
2018-12-26T21:12:24.073Z,101862.61
2018-12-26T21:14:55.838Z,101861.16
2018-12-26T21:17:27.620Z,101864.05
2018-12-26T21:19:59.278Z,101863.30
2018-12-26T21:22:30.970Z,101862.97
2018-12-26T21:25:02.561Z,101863.26
2018-12-26T21:27:34.699Z,101854.69
2018-12-26T21:30:09.833Z,101856.93
2018-12-26T21:32:42.584Z,101861.31
2018-12-26T21:35:14.373Z,101860.47
2018-12-26T21:37:46.039Z,101856.02
2018-12-26T21:40:17.757Z,101857.92
2018-12-26T21:42:49.523Z,101853.95
2018-12-26T21:45:23.673Z,101857.59
2018-12-26T21:47:54.375Z,101856.84
2018-12-26T21:50:25.961Z,101864.71
2018-12-26T21:52:57.535Z,101861.45
2018-12-26T21:55:29.108Z,101855.34
2018-12-26T21:58:00.762Z,101853.83
2018-12-26T22:00:32.408Z,101854.80
2018-12-26T22:03:04.066Z,101852.59
2018-12-26T22:05:35.745Z,101854.20
2018-12-26T22:08:07.441Z,101857.59
2018-12-26T22:10:39.089Z,101860.06
2018-12-26T22:13:10.827Z,101857.64
2018-12-26T22:15:42.399Z,101859.70
2018-12-26T22:18:14.087Z,101854.42
2018-12-26T22:20:45.713Z,101855.77
2018-12-26T22:23:17.309Z,101855.95
2018-12-26T22:25:48.939Z,101847.41
2018-12-26T22:28:20.578Z,101856.64
2018-12-26T22:30:52.147Z,101841.19
2018-12-26T22:33:23.907Z,101837.97
2018-12-26T22:35:56.546Z,101843.98
2018-12-26T22:38:28.143Z,101840.25
2018-12-26T22:40:59.810Z,101837.83
2018-12-26T22:43:31.430Z,101842.23
2018-12-26T22:46:03.073Z,101840.64
2018-12-26T22:48:36.330Z,101834.42
2018-12-26T22:51:14.841Z,101837.43
2018-12-26T22:53:46.682Z,101837.97
2018-12-26T22:56:18.310Z,101833.41
2018-12-26T22:58:49.907Z,101828.30
2018-12-26T23:01:21.759Z,101834.67
2018-12-26T23:03:53.568Z,101829.61
2018-12-26T23:06:25.358Z,101826.72
2018-12-26T23:08:56.945Z,101829.35
2018-12-26T23:11:28.628Z,101825.12
2018-12-26T23:14:01.426Z,101824.67
2018-12-26T23:16:33.074Z,101823.37
2018-12-26T23:19:04.699Z,101822.58
2018-12-26T23:21:39.345Z,101821.56
2018-12-26T23:24:11.185Z,101816.53
2018-12-26T23:26:42.817Z,101825.95
2018-12-26T23:29:14.515Z,101824.57
2018-12-26T23:31:46.268Z,101827.58
2018-12-26T23:34:17.952Z,101824.25
2018-12-26T23:36:49.564Z,101814.00
2018-12-26T23:39:21.464Z,101819.28
2018-12-26T23:41:53.130Z,101815.63
2018-12-26T23:44:25.458Z,101806.25
2018-12-26T23:46:57.043Z,101810.41
2018-12-26T23:49:28.683Z,101805.53
2018-12-26T23:52:00.440Z,101804.95
2018-12-26T23:54:32.105Z,101797.94
2018-12-26T23:57:03.881Z,101799.23
2018-12-26T23:59:36.684Z,101799.89
